PS47 weather

Hamilton Hill Airport
Ebensburg, Pennsylvania, United States

Public forecast

Using degrees Fahrenheit for public forecast. Weather courtesy of forecast.io.

METAR (pilot weather report)

Closest report is John Murtha Johnstown Cambria County Airport, 7.9 nm (14.7 km) SSW. Retrieved 2019/05/20 17:54 UTC (1 hour ago):

KJST 201754Z AUTO 26014G28KT 10SM SCT033 BKN042 BKN048 20/12 A2991 RMK AO2 PK WND 27030/1715 SLP116 60000 T02000117 10217 20178 58002

TAF (pilot weather forecast)

Closest forecast is John Murtha Johnstown Cambria County Airport, 7.9 nm (14.7 km) SSW. Retrieved 2019/05/20 18:45 UTC (10 minutes ago):

TAF KJST 201743Z 2018/2118 27016G24KT P6SM SCT029 BKN035 BKN045 FM202000 29020G27KT P6SM BKN035 FM210200 30012KT P6SM BKN025 FM211600 32012G18KT P6SM FEW250